Time;durP1;ratioP1;P1;durP2;ratioP2;P2;SDS_P1;SDS_P2;PMS_P1;PMS_P2;Temp;Humidity;BMP_temperature;BMP_pressure;BME280_temperature;BME280_humidity;BME280_pressure;Samples;Min_cycle;Max_cycle;Signal;HPM_P1;HPM_P2
2023/02/03 00:00:12;;;;;;;29.10;19.58;;;;;;;2.92;100.00;100569.38;5093732;28;20066;-72
2023/02/03 00:02:37;;;;;;;17.63;11.38;;;;;;;2.82;100.00;100589.31;5094652;28;20032;-72
2023/02/03 00:05:03;;;;;;;18.77;12.95;;;;;;;3.05;100.00;100568.69;5094615;28;20107;-72
2023/02/03 00:07:28;;;;;;;15.35;11.10;;;;;;;3.10;100.00;100588.84;5094625;28;20417;-72
2023/02/03 00:09:56;;;;;;;17.80;11.88;;;;;;;2.91;100.00;100580.25;5075873;28;20119;-72
2023/02/03 00:12:21;;;;;;;15.60;11.00;;;;;;;2.97;100.00;100571.97;5076294;28;20032;-72
2023/02/03 00:14:47;;;;;;;17.90;12.27;;;;;;;2.39;100.00;100530.22;5094486;28;20038;-72
2023/02/03 00:17:14;;;;;;;18.15;12.93;;;;;;;2.73;100.00;100595.09;5094483;28;20077;-72
2023/02/03 00:19:39;;;;;;;16.20;11.10;;;;;;;2.08;100.00;100533.13;5094287;28;20096;-71
2023/02/03 00:22:05;;;;;;;13.45;9.63;;;;;;;2.66;100.00;100580.75;5094206;28;20462;-72
2023/02/03 00:24:30;;;;;;;8.88;6.72;;;;;;;2.61;100.00;100582.38;5094444;28;20024;-72
2023/02/03 00:26:55;;;;;;;8.60;6.40;;;;;;;1.85;100.00;100472.59;5075419;28;20107;-73
2023/02/03 00:29:24;;;;;;;13.13;7.57;;;;;;;1.99;100.00;100502.88;5075561;28;20035;-72
2023/02/03 00:31:50;;;;;;;10.10;5.82;;;;;;;2.55;100.00;100574.75;5094119;28;20539;-71
2023/02/03 00:34:16;;;;;;;11.35;6.50;;;;;;;2.45;100.00;100512.75;5076148;28;20047;-71
2023/02/03 00:40:03;;;;;;;8.67;5.23;;;;;;;2.52;100.00;100515.34;5094303;28;20402;-73
2023/02/03 00:42:28;;;;;;;8.02;5.43;;;;;;;2.71;100.00;100581.69;5093255;28;20278;-71
2023/02/03 00:44:54;;;;;;;10.20;6.80;;;;;;;2.19;100.00;100509.88;5094280;28;20024;-73
2023/02/03 00:50:41;;;;;;;11.30;7.70;;;;;;;2.88;100.00;100574.34;5094325;28;20505;-72
2023/02/03 00:53:06;;;;;;;9.40;6.32;;;;;;;2.95;100.00;100571.09;5093824;28;20027;-72
2023/02/03 00:55:32;;;;;;;7.93;5.75;;;;;;;3.10;100.00;100592.22;5093994;28;20028;-71
2023/02/03 00:57:57;;;;;;;9.20;4.45;;;;;;;3.37;100.00;100587.50;5092397;28;20509;-72
2023/02/03 01:00:23;;;;;;;7.78;4.82;;;;;;;3.55;100.00;100609.44;5074815;28;20031;-71
2023/02/03 01:02:48;;;;;;;5.82;2.67;;;;;;;3.31;100.00;100524.63;5074930;28;20016;-71
2023/02/03 01:05:14;;;;;;;3.55;1.77;;;;;;;4.22;100.00;100578.19;5075044;28;20027;-70
2023/02/03 01:07:39;;;;;;;3.30;2.03;;;;;;;3.87;100.00;100519.25;5093345;28;20054;-71
2023/02/03 01:10:05;;;;;;;3.60;1.95;;;;;;;3.85;100.00;100518.38;5074927;28;20444;-71
2023/02/03 01:12:31;;;;;;;4.13;2.60;;;;;;;3.77;100.00;100498.22;5093175;28;20032;-72
2023/02/03 01:18:19;;;;;;;3.80;1.52;;;;;;;4.71;100.00;100562.56;5093392;28;20071;-71
2023/02/03 01:20:45;;;;;;;2.75;1.25;;;;;;;4.68;100.00;100517.22;5092482;28;20046;-71
2023/02/03 01:23:10;;;;;;;2.22;1.42;;;;;;;4.11;100.00;100406.22;5074678;28;20533;-71
2023/02/03 01:28:59;;;;;;;3.72;1.35;;;;;;;5.10;100.00;100529.97;5093283;28;20065;-74
2023/02/03 01:31:27;;;;;;;2.90;1.17;;;;;;;4.61;100.00;100481.94;5093079;28;20371;-72
2023/02/03 01:33:53;;;;;;;3.03;0.90;;;;;;;4.98;100.00;100541.69;5093068;28;20530;-72
2023/02/03 01:36:20;;;;;;;3.30;1.13;;;;;;;5.10;100.00;100534.16;5092522;28;20031;-71
2023/02/03 01:38:46;;;;;;;2.47;1.10;;;;;;;4.64;100.00;100452.59;5074459;28;20088;-71
2023/02/03 01:41:20;;;;;;;2.75;1.27;;;;;;;4.73;100.00;100472.78;5093020;28;20036;-71
2023/02/03 01:47:37;;;;;;;4.10;1.33;;;;;;;4.96;100.00;100535.81;5093029;28;20112;-72
2023/02/03 01:53:24;;;;;;;4.15;1.15;;;;;;;4.50;100.00;100466.78;5092857;28;20038;-72
2023/02/03 01:55:50;;;;;;;2.45;1.10;;;;;;;4.88;100.00;100540.81;5092241;28;20110;-72
2023/02/03 01:58:26;;;;;;;3.20;1.27;;;;;;;4.88;100.00;100533.25;5092375;28;20047;-73
2023/02/03 02:00:54;;;;;;;2.83;1.15;;;;;;;4.94;100.00;100543.34;5092086;28;20023;-72
2023/02/03 02:03:33;;;;;;;3.60;1.20;;;;;;;4.53;100.00;100461.78;5074416;28;20024;-72
2023/02/03 02:06:06;;;;;;;3.47;1.20;;;;;;;4.50;100.00;100450.88;5071119;28;20456;-72
2023/02/03 02:08:32;;;;;;;2.97;1.15;;;;;;;4.09;100.00;100385.25;5074626;28;20028;-72
2023/02/03 02:11:01;;;;;;;2.58;0.82;;;;;;;5.07;100.00;100546.78;5074538;28;20115;-72
2023/02/03 02:16:51;;;;;;;2.00;0.93;;;;;;;4.89;100.00;100529.88;5093024;28;20043;-73
2023/02/03 02:19:46;;;;;;;2.75;1.30;;;;;;;5.07;100.00;100540.03;5092336;28;20028;-74
2023/02/03 02:22:23;;;;;;;3.42;1.30;;;;;;;5.00;100.00;100548.41;5054591;28;20487;-74
2023/02/03 02:24:55;;;;;;;2.72;1.52;;;;;;;4.81;100.00;100554.22;5092377;28;20024;-74
2023/02/03 02:27:52;;;;;;;5.50;1.48;;;;;;;4.91;100.00;100562.66;5074545;28;20074;-74
2023/02/03 02:30:41;;;;;;;2.20;1.25;;;;;;;4.90;100.00;100564.34;5051032;28;20199;-74
2023/02/03 02:33:10;;;;;;;2.20;1.25;;;;;;;4.85;100.00;100550.88;5077914;28;20478;-74
2023/02/03 02:39:12;;;;;;;3.97;1.90;;;;;;;4.94;100.00;100552.59;5096656;28;20035;-72
2023/02/03 02:41:47;;;;;;;1.53;1.00;;;;;;;5.01;100.00;100546.75;5078409;28;20135;-72
2023/02/03 02:44:29;;;;;;;4.80;1.38;;;;;;;4.10;100.00;100397.84;5077872;28;20032;-73
2023/02/03 02:47:00;;;;;;;2.47;1.48;;;;;;;4.87;100.00;100530.75;5096726;28;20024;-72
2023/02/03 02:52:49;;;;;;;2.67;1.90;;;;;;;4.50;100.00;100454.22;5096772;28;20051;-72
2023/02/03 02:55:23;;;;;;;4.80;2.20;;;;;;;4.57;100.00;100481.09;5078120;28;20115;-72
2023/02/03 02:57:52;;;;;;;5.15;1.60;;;;;;;4.96;100.00;100539.16;5095865;28;20026;-73
2023/02/03 03:00:19;;;;;;;2.60;1.60;;;;;;;4.25;100.00;100405.47;5096009;28;20092;-73
2023/02/03 03:02:44;;;;;;;3.67;1.83;;;;;;;4.72;100.00;100482.81;5096136;28;20024;-72
2023/02/03 03:05:11;;;;;;;4.88;2.20;;;;;;;5.06;100.00;100535.00;5095986;28;20024;-72
2023/02/03 03:11:00;;;;;;;2.78;1.30;;;;;;;4.42;100.00;100473.47;5095989;28;20104;-72
2023/02/03 03:16:58;;;;;;;1.87;1.03;;;;;;;4.88;100.00;100555.06;5095836;28;20039;-72
2023/02/03 03:19:27;;;;;;;3.97;1.40;;;;;;;4.55;100.00;100495.34;5094246;28;20346;-73
2023/02/03 03:21:56;;;;;;;3.45;1.58;;;;;;;4.75;100.00;100549.16;5095543;28;20023;-73
2023/02/03 03:24:30;;;;;;;3.88;1.70;;;;;;;4.51;100.00;100500.38;5077040;28;20051;-74
2023/02/03 03:27:01;;;;;;;3.60;1.45;;;;;;;5.09;100.00;100581.19;5095588;28;20047;-74
2023/02/03 03:29:35;;;;;;;3.50;1.20;;;;;;;4.64;100.00;100507.97;5095514;28;20031;-74
2023/02/03 03:32:02;;;;;;;3.03;1.60;;;;;;;4.95;100.00;100562.66;5095457;28;20020;-73
2023/02/03 03:37:59;;;;;;;4.80;1.40;;;;;;;4.19;100.00;100450.72;5095649;28;20039;-74
2023/02/03 03:40:38;;;;;;;3.08;1.42;;;;;;;4.56;100.00;100486.09;5095178;28;20058;-74
2023/02/03 03:43:19;;;;;;;2.70;1.33;;;;;;;5.10;100.00;100574.47;5075880;28;20478;-74
2023/02/03 03:46:11;;;;;;;2.92;1.63;;;;;;;5.06;100.00;100578.69;5095788;28;20028;-74
2023/02/03 03:48:55;;;;;;;4.28;1.50;;;;;;;5.05;100.00;100561.03;5094921;28;20059;-73
2023/02/03 03:51:31;;;;;;;5.07;1.90;;;;;;;4.55;100.00;100464.31;5076933;28;20028;-74
2023/02/03 03:54:02;;;;;;;2.95;1.48;;;;;;;4.75;100.00;100496.28;5075543;28;20036;-73
2023/02/03 03:56:35;;;;;;;3.20;1.73;;;;;;;5.20;100.00;100582.09;5093889;28;20059;-74
2023/02/03 04:02:23;;;;;;;4.10;1.40;;;;;;;5.35;100.00;100572.91;5095426;28;20177;-74
2023/02/03 04:04:49;;;;;;;3.28;1.50;;;;;;;4.85;100.00;100492.13;5094488;28;20035;-74
2023/02/03 04:07:15;;;;;;;3.58;1.50;;;;;;;5.36;100.00;100577.94;5076465;28;20513;-74
2023/02/03 04:09:41;;;;;;;4.50;1.40;;;;;;;4.86;100.00;100484.56;5080008;28;20024;-74
2023/02/03 04:12:27;;;;;;;3.53;1.48;;;;;;;5.38;100.00;100565.31;5080230;28;20024;-73
2023/02/03 04:14:52;;;;;;;3.75;1.77;;;;;;;4.52;100.00;100450.03;5076788;28;20032;-74
2023/02/03 04:17:19;;;;;;;3.20;1.83;;;;;;;5.32;100.00;100590.50;5094504;28;20421;-73
2023/02/03 04:19:45;;;;;;;4.95;2.33;;;;;;;5.27;100.00;100598.06;5096363;28;20028;-73
2023/02/03 04:22:10;;;;;;;4.10;1.83;;;;;;;4.85;100.00;100533.22;5094731;28;20523;-72
2023/02/03 04:27:57;;;;;;;3.13;1.77;;;;;;;4.83;100.00;100552.53;5094638;28;20065;-74
2023/02/03 04:30:24;;;;;;;3.33;1.80;;;;;;;4.86;100.00;100565.16;5093760;28;20050;-75
2023/02/03 04:32:49;;;;;;;3.92;2.28;;;;;;;7.11;100.00;100622.47;5094314;28;20110;-73
2023/02/03 04:35:15;;;;;;;8.13;2.20;;;;;;;5.73;100.00;100559.50;5093807;28;20044;-70
2023/02/03 04:37:41;;;;;;;4.53;2.45;;;;;;;5.43;100.00;100646.88;5093675;28;20096;-73
2023/02/03 04:40:07;;;;;;;6.35;2.50;;;;;;;4.71;100.00;100579.34;5075898;28;20091;-73
2023/02/03 04:42:36;;;;;;;6.07;2.30;;;;;;;4.95;100.00;100650.00;5093080;28;20028;-73
2023/02/03 04:45:01;;;;;;;4.03;2.40;;;;;;;5.09;100.00;100656.78;5093079;28;20024;-72
2023/02/03 04:47:26;;;;;;;6.00;2.30;;;;;;;3.98;100.00;100502.56;5075902;28;20039;-71
2023/02/03 04:53:13;;;;;;;5.60;2.47;;;;;;;4.85;100.00;100658.34;5094081;28;20157;-73
2023/02/03 04:55:39;;;;;;;6.07;2.45;;;;;;;4.94;100.00;100658.38;5093319;28;20482;-70
2023/02/03 04:58:04;;;;;;;5.60;2.45;;;;;;;4.92;100.00;100663.41;5093410;28;20056;-72
2023/02/03 05:00:29;;;;;;;4.72;2.30;;;;;;;4.91;100.00;100643.25;5092525;28;20456;-73
2023/02/03 05:02:55;;;;;;;3.78;2.30;;;;;;;5.07;100.00;100675.28;5093344;28;20065;-73
2023/02/03 05:05:20;;;;;;;4.88;2.80;;;;;;;4.91;100.00;100658.38;5075011;28;20523;-72
2023/02/03 05:07:46;;;;;;;4.13;2.35;;;;;;;5.10;100.00;100681.16;5093687;28;20099;-73
2023/02/03 05:13:33;;;;;;;3.85;1.45;;;;;;;5.14;100.00;100682.88;5093813;28;20065;-71
2023/02/03 05:15:59;;;;;;;6.25;2.40;;;;;;;4.57;100.00;100608.63;5074540;28;20054;-71
2023/02/03 05:18:24;;;;;;;4.35;2.33;;;;;;;4.97;100.00;100671.00;5092934;28;20024;-71
2023/02/03 05:20:49;;;;;;;4.50;3.00;;;;;;;4.56;100.00;100640.50;5092521;28;20031;-71
2023/02/03 05:26:36;;;;;;;6.10;4.00;;;;;;;5.02;100.00;100705.47;5093127;28;20116;-71
2023/02/03 05:29:02;;;;;;;6.68;3.30;;;;;;;5.06;100.00;100701.28;5074049;28;20036;-73
2023/02/03 05:31:28;;;;;;;5.57;3.63;;;;;;;4.55;100.00;100631.28;5092882;28;20038;-72
2023/02/03 05:33:54;;;;;;;8.95;3.90;;;;;;;4.90;100.00;100712.94;5092427;28;20093;-72
2023/02/03 05:36:19;;;;;;;6.50;4.28;;;;;;;4.46;100.00;100618.63;5093034;28;20438;-73
2023/02/03 05:38:45;;;;;;;9.50;4.53;;;;;;;4.98;100.00;100700.38;5074935;28;20059;-73
2023/02/03 05:43:55;;;;;;;12.60;5.80;;;;;;;5.14;100.00;100735.78;5093375;28;20089;-70
2023/02/03 05:46:20;;;;;;;9.77;6.40;;;;;;;4.95;100.00;100686.09;5074188;28;20028;-71
2023/02/03 05:48:46;;;;;;;10.25;5.90;;;;;;;5.06;100.00;100744.13;5074108;28;20494;-71
2023/02/03 05:51:11;;;;;;;13.13;6.20;;;;;;;5.03;100.00;100711.34;5092557;28;20028;-71
2023/02/03 05:53:37;;;;;;;14.52;8.82;;;;;;;3.63;100.00;100689.94;5092578;28;20424;-72
2023/02/03 05:56:02;;;;;;;19.00;11.82;;;;;;;3.03;100.00;100737.78;5092984;28;20052;-73
2023/02/03 05:58:28;;;;;;;14.63;8.93;;;;;;;3.22;100.00;100758.13;5092802;28;20027;-72
2023/02/03 06:00:53;;;;;;;9.85;6.53;;;;;;;2.92;100.00;100751.81;5074517;28;20028;-72
2023/02/03 06:06:40;;;;;;;9.43;5.67;;;;;;;2.70;100.00;100669.47;5092850;28;20034;-73
2023/02/03 06:09:07;;;;;;;18.95;11.15;;;;;;;3.06;100.00;100715.19;5092503;28;20020;-72
2023/02/03 06:11:34;;;;;;;16.58;10.80;;;;;;;3.12;100.00;100727.84;5092623;28;20031;-72
2023/02/03 06:14:00;;;;;;;16.02;8.90;;;;;;;2.79;100.00;100680.50;5092704;28;20125;-72
2023/02/03 06:16:27;;;;;;;13.20;8.07;;;;;;;3.78;100.00;100780.66;5092339;28;20107;-72
2023/02/03 06:18:57;;;;;;;8.63;6.47;;;;;;;3.35;100.00;100686.28;5092212;28;20020;-73
2023/02/03 06:21:22;;;;;;;23.10;11.55;;;;;;;3.40;100.00;100786.03;5074693;28;20036;-73
2023/02/03 06:23:48;;;;;;;11.68;7.50;;;;;;;3.56;100.00;100716.72;5092752;28;20165;-73
2023/02/03 06:26:13;;;;;;;13.65;8.57;;;;;;;3.53;100.00;100689.00;5092539;28;20371;-73
2023/02/03 06:28:39;;;;;;;21.23;9.93;;;;;;;3.42;100.00;100706.50;5092708;28;20077;-73
2023/02/03 06:31:05;;;;;;;12.80;8.13;;;;;;;3.98;100.00;100797.66;5092275;28;20509;-72
2023/02/03 06:33:31;;;;;;;24.08;11.00;;;;;;;4.21;100.00;100806.31;5092578;28;20024;-72
2023/02/03 06:35:57;;;;;;;20.65;11.27;;;;;;;4.22;100.00;100799.59;5074580;28;20035;-73
2023/02/03 06:38:22;;;;;;;17.90;10.32;;;;;;;4.14;100.00;100781.09;5074569;28;20039;-73
2023/02/03 06:40:48;;;;;;;26.35;17.27;;;;;;;4.51;100.00;100813.34;5091650;28;20063;-73
2023/02/03 06:43:14;;;;;;;22.52;15.20;;;;;;;4.59;100.00;100810.91;5092930;28;20032;-73
2023/02/03 06:45:40;;;;;;;25.77;18.83;;;;;;;4.22;100.00;100719.94;5091999;28;20050;-73
2023/02/03 06:48:06;;;;;;;18.92;13.88;;;;;;;4.51;100.00;100732.78;5073897;28;20452;-73
2023/02/03 06:50:32;;;;;;;20.60;14.20;;;;;;;4.98;100.00;100791.94;5092150;28;20458;-73
2023/02/03 06:52:57;;;;;;;21.23;15.52;;;;;;;5.21;100.00;100790.41;5073670;28;20051;-72
2023/02/03 06:55:22;;;;;;;22.27;16.63;;;;;;;4.68;100.00;100695.16;5073776;28;20062;-73
2023/02/03 06:57:48;;;;;;;29.63;17.55;;;;;;;4.81;100.00;100714.56;5091798;28;20039;-73
2023/02/03 07:00:16;;;;;;;23.75;17.35;;;;;;;4.71;100.00;100707.78;5092284;28;20342;-73
2023/02/03 07:02:42;;;;;;;21.27;13.68;;;;;;;5.14;100.00;100730.75;5073925;28;20038;-72
2023/02/03 07:05:07;;;;;;;15.10;10.75;;;;;;;5.27;100.00;100721.53;5074169;28;20028;-73
2023/02/03 07:07:33;;;;;;;7.05;5.13;;;;;;;6.00;100.00;100816.09;5073951;28;20039;-73
2023/02/03 07:10:02;;;;;;;7.68;4.78;;;;;;;5.24;100.00;100727.44;5073578;28;20339;-73
2023/02/03 07:12:27;;;;;;;10.68;6.68;;;;;;;5.48;100.00;100657.78;5073793;28;20113;-73
2023/02/03 07:14:53;;;;;;;8.13;5.47;;;;;;;6.05;100.00;100799.28;5073498;28;20115;-72
2023/02/03 07:17:18;;;;;;;6.63;4.70;;;;;;;5.59;100.00;100746.91;5092552;28;20023;-73
2023/02/03 07:19:44;;;;;;;12.35;6.13;;;;;;;5.25;100.00;100719.03;5094823;28;20136;-72
2023/02/03 07:22:10;;;;;;;10.80;6.22;;;;;;;5.26;100.00;100720.72;5077062;28;20055;-72
2023/02/03 07:24:35;;;;;;;11.48;6.88;;;;;;;5.73;100.00;100803.31;5095528;28;20024;-73
2023/02/03 07:27:01;;;;;;;7.85;5.10;;;;;;;5.24;100.00;100719.88;5077414;28;20057;-73
2023/02/03 07:29:27;;;;;;;10.30;5.82;;;;;;;5.67;100.00;100801.63;5095618;28;20395;-72
2023/02/03 07:31:52;;;;;;;7.43;5.32;;;;;;;5.58;100.00;100808.28;5095706;28;20028;-73
2023/02/03 07:34:18;;;;;;;9.07;5.50;;;;;;;5.64;100.00;100811.69;5095522;28;20114;-72
2023/02/03 07:36:43;;;;;;;8.98;4.93;;;;;;;5.57;100.00;100829.28;5095229;28;20026;-73
2023/02/03 07:39:08;;;;;;;11.13;6.07;;;;;;;4.73;100.00;100686.81;5095105;28;20020;-73
2023/02/03 07:41:34;;;;;;;7.88;5.38;;;;;;;4.51;100.00;100679.09;5095042;28;20119;-73
2023/02/03 07:43:59;;;;;;;9.52;6.95;;;;;;;5.44;100.00;100827.53;5095466;28;20020;-72
2023/02/03 07:46:24;;;;;;;8.43;6.47;;;;;;;5.51;100.00;100837.66;5095180;28;20440;-73
2023/02/03 07:48:50;;;;;;;10.60;6.30;;;;;;;4.98;100.00;100755.81;5095003;28;20099;-73
2023/02/03 07:51:15;;;;;;;9.55;5.45;;;;;;;5.12;100.00;100781.94;5094523;28;20020;-73
2023/02/03 07:53:41;;;;;;;8.25;5.80;;;;;;;4.96;100.00;100748.25;5094858;28;20039;-74
2023/02/03 07:56:06;;;;;;;7.50;4.80;;;;;;;5.53;100.00;100848.59;5076867;28;20061;-73
2023/02/03 07:58:32;;;;;;;11.85;6.50;;;;;;;5.61;100.00;100841.94;5076800;28;20020;-73
2023/02/03 08:00:58;;;;;;;11.77;7.28;;;;;;;5.66;100.00;100852.06;5094306;28;20032;-73
2023/02/03 08:03:23;;;;;;;7.82;4.65;;;;;;;5.84;100.00;100872.38;5094921;28;20485;-72
2023/02/03 08:05:49;;;;;;;6.78;4.60;;;;;;;6.05;100.00;100868.28;5094745;28;20032;-72
2023/02/03 08:08:15;;;;;;;8.98;4.82;;;;;;;6.05;100.00;100868.28;5076605;28;20035;-73
2023/02/03 08:10:40;;;;;;;5.47;3.75;;;;;;;5.89;100.00;100883.31;5094827;28;20442;-73
2023/02/03 08:13:05;;;;;;;7.70;4.18;;;;;;;5.84;100.00;100834.53;5076653;28;20053;-73
2023/02/03 08:15:31;;;;;;;5.38;3.83;;;;;;;5.97;100.00;100862.34;5094531;28;20385;-73
2023/02/03 08:17:56;;;;;;;5.65;3.53;;;;;;;5.81;100.00;100822.72;5076671;28;20474;-73
2023/02/03 08:20:22;;;;;;;7.72;4.25;;;;;;;6.05;100.00;100855.66;5094148;28;20039;-73
2023/02/03 08:22:47;;;;;;;8.75;5.28;;;;;;;5.56;100.00;100787.25;5093545;28;20096;-73
2023/02/03 08:25:13;;;;;;;11.52;6.25;;;;;;;6.06;100.00;100887.63;5094464;28;20054;-74
2023/02/03 08:27:39;;;;;;;11.43;6.95;;;;;;;5.98;100.00;100871.59;5094140;28;20436;-73
2023/02/03 08:30:06;;;;;;;13.77;9.82;;;;;;;5.91;100.00;100882.50;5094016;28;20039;-74
2023/02/03 08:32:32;;;;;;;15.45;12.13;;;;;;;6.00;100.00;100881.72;5094348;28;20107;-73
2023/02/03 08:34:58;;;;;;;9.18;6.60;;;;;;;5.98;100.00;100876.63;5076339;28;20153;-74
2023/02/03 08:37:24;;;;;;;7.78;5.97;;;;;;;5.94;100.00;100874.13;5093902;28;20020;-73
2023/02/03 08:39:50;;;;;;;8.50;5.93;;;;;;;5.59;100.00;100820.91;5092969;28;20072;-73
2023/02/03 08:42:15;;;;;;;7.25;4.65;;;;;;;5.95;100.00;100880.84;5094123;28;20047;-74
2023/02/03 08:44:42;;;;;;;6.68;4.20;;;;;;;5.83;100.00;100863.94;5075921;28;20067;-74
2023/02/03 08:47:09;;;;;;;8.10;5.20;;;;;;;5.95;100.00;100895.97;5094120;28;20024;-74
2023/02/03 08:49:38;;;;;;;9.15;5.38;;;;;;;6.09;100.00;100897.75;5093456;28;20059;-74
2023/02/03 08:52:04;;;;;;;7.35;4.03;;;;;;;5.17;100.00;100750.91;5093491;28;20020;-74
2023/02/03 08:54:30;;;;;;;5.57;4.30;;;;;;;6.10;100.00;100894.38;5093903;28;20020;-73
2023/02/03 08:56:56;;;;;;;6.53;4.47;;;;;;;6.16;100.00;100893.53;5094140;28;20024;-73
2023/02/03 08:59:22;;;;;;;7.72;4.90;;;;;;;5.60;100.00;100771.31;5075280;28;20115;-73
2023/02/03 09:01:47;;;;;;;26.23;18.52;;;;;;;5.63;100.00;100778.88;5093651;28;20080;-73
2023/02/03 09:04:14;;;;;;;10.57;7.03;;;;;;;6.37;100.00;100895.31;5093925;28;20092;-73
2023/02/03 09:06:39;;;;;;;10.38;5.50;;;;;;;6.14;100.00;100832.97;5093366;28;20028;-73
2023/02/03 09:09:05;;;;;;;4.97;3.80;;;;;;;6.93;100.00;100896.34;5093905;28;20030;-73
2023/02/03 09:11:30;;;;;;;6.95;3.38;;;;;;;6.85;100.00;100812.09;5093734;28;20085;-73
2023/02/03 09:13:56;;;;;;;7.53;5.13;;;;;;;7.85;100.00;100899.66;5097071;28;20521;-73
2023/02/03 09:16:23;;;;;;;6.40;4.47;;;;;;;8.09;100.00;100888.63;5079526;28;20032;-73
2023/02/03 09:18:49;;;;;;;8.88;5.05;;;;;;;8.30;100.00;100880.16;5079350;28;20047;-73
2023/02/03 09:21:15;;;;;;;4.97;3.58;;;;;;;7.71;100.00;100796.78;5093613;28;20097;-73
2023/02/03 09:23:42;;;;;;;6.43;4.10;;;;;;;7.88;100.00;100802.63;5074798;28;20040;-73
2023/02/03 09:26:10;;;;;;;5.97;4.18;;;;;;;7.58;100.00;100777.44;5093342;28;20032;-73
2023/02/03 09:28:36;;;;;;;10.75;5.18;;;;;;;7.32;100.00;100804.47;5093413;28;20035;-73
2023/02/03 09:31:04;;;;;;;6.82;4.70;;;;;;;7.77;100.00;100887.88;5074780;28;20024;-73
2023/02/03 09:33:29;;;;;;;4.45;3.53;;;;;;;7.11;100.00;100858.41;5075002;28;20020;-73
2023/02/03 09:35:56;;;;;;;8.85;5.40;;;;;;;7.57;100.00;100877.78;5074326;28;20028;-73
2023/02/03 09:38:22;;;;;;;11.10;5.57;;;;;;;7.50;100.00;100866.00;5093238;28;20074;-73
2023/02/03 09:40:53;;;;;;;7.65;4.07;;;;;;;6.71;100.00;100783.44;5092145;28;20051;-74
2023/02/03 09:43:31;;;;;;;7.28;4.47;;;;;;;6.96;100.00;100785.97;5074285;28;20057;-73
2023/02/03 09:46:07;;;;;;;8.52;3.80;;;;;;;6.94;100.00;100762.38;5074637;28;20385;-73
2023/02/03 09:52:16;;;;;;;5.03;3.47;;;;;;;8.32;100.00;100855.66;5093187;28;20409;-73
2023/02/03 09:54:57;;;;;;;9.52;5.95;;;;;;;8.31;100.00;100847.22;5093041;28;20020;-72
2023/02/03 09:57:26;;;;;;;8.32;5.35;;;;;;;7.98;100.00;100760.41;5092728;28;20036;-73
2023/02/03 09:59:54;;;;;;;8.05;4.57;;;;;;;7.74;100.00;100769.75;5092709;28;20504;-75
2023/02/03 10:02:58;;;;;;;5.25;4.10;;;;;;;8.21;100.00;100753.50;5074543;28;20031;-74
2023/02/03 10:05:26;;;;;;;6.35;4.53;;;;;;;8.67;100.00;100839.41;5074624;28;20036;-74
2023/02/03 10:08:06;;;;;;;6.07;4.63;;;;;;;8.28;100.00;100826.94;5074508;28;20053;-72
2023/02/03 10:10:41;;;;;;;6.45;4.60;;;;;;;8.01;100.00;100823.66;5074126;28;20047;-74
2023/02/03 10:13:24;;;;;;;8.07;5.20;;;;;;;8.15;100.00;100817.69;5074151;28;20442;-72
2023/02/03 10:16:01;;;;;;;6.45;4.20;;;;;;;7.17;100.00;100726.13;5092689;28;20020;-73
2023/02/03 10:18:29;;;;;;;5.55;4.18;;;;;;;7.87;100.00;100799.25;5092911;28;20031;-75
2023/02/03 10:21:09;;;;;;;5.38;3.28;;;;;;;7.87;100.00;100804.31;5092407;28;20024;-70
2023/02/03 10:23:39;;;;;;;8.88;5.95;;;;;;;6.96;100.00;100649.47;5073706;28;20561;-75
2023/02/03 10:26:11;;;;;;;7.00;5.30;;;;;;;7.22;100.00;100710.09;5092610;28;20047;-74
2023/02/03 10:28:44;;;;;;;9.85;5.65;;;;;;;7.76;100.00;100811.09;4717572;28;9999912;-72
2023/02/03 10:31:21;;;;;;;7.32;5.28;;;;;;;8.29;100.00;100799.94;5072509;28;20355;-72
2023/02/03 10:33:54;;;;;;;3.67;2.67;;;;;;;7.82;100.00;100688.75;5072353;28;20029;-73
2023/02/03 10:36:21;;;;;;;7.00;4.22;;;;;;;8.74;100.00;100809.78;5072288;28;20016;-74
2023/02/03 10:39:01;;;;;;;7.68;3.53;;;;;;;8.70;100.00;100737.97;5071809;28;20039;-74
2023/02/03 10:41:29;;;;;;;5.55;3.00;;;;;;;8.67;100.00;100790.41;5070821;28;20040;-75
2023/02/03 10:43:55;;;;;;;7.88;4.00;;;;;;;8.66;100.00;100684.78;5072041;28;20037;-74
2023/02/03 10:46:26;;;;;;;12.15;6.82;;;;;;;9.00;100.00;100767.31;5068707;28;20044;-74
2023/02/03 10:48:52;;;;;;;8.48;4.60;;;;;;;9.42;100.00;100703.47;5072225;28;20028;-70
2023/02/03 10:51:21;;;;;;;5.88;3.72;;;;;;;8.09;100.00;100675.94;5053121;28;20035;-73
2023/02/03 10:53:51;;;;;;;6.35;4.30;;;;;;;8.22;100.00;100758.56;5073075;28;20031;-73
2023/02/03 10:56:18;;;;;;;4.90;3.63;;;;;;;8.03;100.00;100665.84;5074376;28;20024;-72
2023/02/03 10:58:52;;;;;;;7.50;4.30;;;;;;;8.19;100.00;100639.56;5075820;28;20086;-73
2023/02/03 11:01:37;;;;;;;5.38;2.88;;;;;;;8.16;100.00;100677.56;5074544;28;20387;-72
2023/02/03 11:04:04;;;;;;;6.78;3.90;;;;;;;8.27;100.00;100665.72;5069265;28;20024;-73
2023/02/03 11:06:32;;;;;;;7.13;4.38;;;;;;;8.54;100.00;100745.72;5074749;28;20025;-73
2023/02/03 11:08:58;;;;;;;8.15;4.18;;;;;;;7.44;100.00;100602.09;5075621;28;20025;-72
2023/02/03 11:11:30;;;;;;;5.40;3.40;;;;;;;7.48;100.00;100634.97;5074978;28;20024;-72
2023/02/03 11:14:01;;;;;;;6.35;3.80;;;;;;;8.27;100.00;100740.84;5075732;28;20031;-71
2023/02/03 11:16:29;;;;;;;5.05;3.80;;;;;;;7.85;100.00;100671.88;5075622;28;20094;-72
2023/02/03 11:19:09;;;;;;;3.70;3.17;;;;;;;8.15;100.00;100731.59;5075237;28;20032;-74
2023/02/03 11:24:57;;;;;;;3.60;2.40;;;;;;;7.52;100.00;100731.91;5075565;28;20104;-73
2023/02/03 11:27:26;;;;;;;5.22;3.72;;;;;;;7.53;100.00;100729.38;5073104;28;20343;-71
2023/02/03 11:30:12;;;;;;;8.48;5.70;;;;;;;7.69;100.00;100705.69;5075183;28;20382;-71
2023/02/03 11:36:01;;;;;;;7.93;5.03;;;;;;;7.79;100.00;100737.69;5075161;28;20497;-74
2023/02/03 11:38:37;;;;;;;6.07;3.40;;;;;;;7.66;100.00;100730.16;5075267;28;20492;-74
2023/02/03 11:41:03;;;;;;;5.50;3.75;;;;;;;7.57;100.00;100626.47;5075314;28;20094;-73
2023/02/03 11:43:29;;;;;;;5.70;2.78;;;;;;;7.97;100.00;100599.22;5073578;28;20041;-74
2023/02/03 11:46:02;;;;;;;4.85;3.17;;;;;;;8.45;100.00;100609.81;5074732;28;20052;-73
2023/02/03 11:48:43;;;;;;;4.65;3.00;;;;;;;8.62;100.00;100643.44;5074928;28;20024;-74
2023/02/03 11:51:12;;;;;;;3.35;2.25;;;;;;;9.27;100.00;100685.84;5073326;28;20024;-74
2023/02/03 11:53:56;;;;;;;5.05;3.35;;;;;;;9.46;100.00;100686.50;5056832;28;20420;-72
2023/02/03 11:56:45;;;;;;;7.35;3.05;;;;;;;9.79;100.00;100670.81;5074748;28;20036;-73
2023/02/03 11:59:35;;;;;;;6.78;4.70;;;;;;;9.31;100.00;100659.59;5074739;28;20485;-72
2023/02/03 12:02:00;;;;;;;8.00;4.97;;;;;;;9.19;100.00;100661.44;5056223;28;20023;-72
2023/02/03 12:04:35;;;;;;;7.68;4.25;;;;;;;9.00;100.00;100662.50;5073693;28;20021;-72
2023/02/03 12:07:33;;;;;;;4.95;3.63;;;;;;;8.75;100.00;100566.41;5056447;28;20029;-72
2023/02/03 12:10:04;;;;;;;6.28;3.40;;;;;;;8.82;100.00;100657.59;5074121;28;20032;-72
2023/02/03 12:12:43;;;;;;;4.72;3.15;;;;;;;8.41;100.00;100633.50;5074239;28;20016;-75
2023/02/03 12:15:23;;;;;;;6.10;3.75;;;;;;;8.53;100.00;100650.28;5074260;28;20107;-74
2023/02/03 12:21:54;;;;;;;4.93;3.77;;;;;;;7.22;100.00;100496.84;5074141;28;20054;-74
2023/02/03 12:24:31;;;;;;;8.52;4.60;;;;;;;8.41;100.00;100651.25;5029292;28;20032;-73
2023/02/03 12:27:09;;;;;;;5.07;3.92;;;;;;;8.06;100.00;100645.53;5074404;28;20024;-72
2023/02/03 12:29:46;;;;;;;8.02;4.35;;;;;;;8.10;100.00;100648.91;5074117;28;20060;-73
2023/02/03 12:32:25;;;;;;;5.40;3.72;;;;;;;8.07;100.00;100633.72;5074207;28;20114;-73
2023/02/03 12:35:00;;;;;;;8.20;4.68;;;;;;;8.07;100.00;100648.94;5073635;28;20115;-73
2023/02/03 12:37:40;;;;;;;4.35;2.80;;;;;;;7.30;100.00;100569.28;5056052;28;20028;-73
2023/02/03 12:40:17;;;;;;;5.78;4.45;;;;;;;8.14;100.00;100659.00;5074317;28;20048;-73
2023/02/03 12:42:50;;;;;;;6.90;4.03;;;;;;;8.12;100.00;100567.00;5072658;28;20063;-73
2023/02/03 12:48:43;;;;;;;5.90;3.28;;;;;;;9.52;100.00;100630.56;5074339;28;20032;-73
2023/02/03 12:51:14;;;;;;;6.20;3.75;;;;;;;9.59;100.00;100644.84;5073670;28;20052;-73